map of QSR home
QSR - Airport
Location
City:  Salerno, Campania, Italy
Name:Pontecagnano
ICAO:LIRI
IATA:QSR

Details
Type:Airport (Aerodrome, Airfield)
Latitude:4037'13"N (40.620400)
Longitude:1454'41"E (14.911294)
Datum:WGS 1984
Elevation:123 ft (37 m)
Variation:3.35E (WMM2015 magnetic declination)
0.10 annual change
Runways:1
Longest:4577 × 148 ft (1395 × 45 m), paved

Time
Time Zone:UTC+1 (DST+2)
Local Time:

Weather
METAR:LIRI 221250Z 19009KT 9999 FEW030 27/20 Q1018

Related Locations
Nearby:
Farthest:CHT: 11817 mi / 19018 km
Waitangi [Tuuta], CIT, NZ

Find:

   beyond  
but within

Other Information
Maps:
NOTAMs:
Links:
Sources:

  
flag of Italy
flag of Campania
  

Sectional Chart

Flight Planning
at skyvector.com

Satellite Image

Google Maps Satellite view

 

Copyright © 2004-2017 Karl L. Swartz. All rights reserved.
The Great Circle Mapper name and logo are trademarks of the Great Circle Mapper.
All other trademarks mentioned herein belong to their respective owners.
Please see credits for attibutions and further copyright information.

  Follow gcmap on Facebook Follow gcmap on Twitter Follow gcmap on Google+ GCmap on LinkedIn

hCard Microformat

Geo Microformat